Mayking, Kentucky
Current Conditions -  °F | °C
As of 6:15 PM on Thursday 27 Nov 2014 (Local Time) from KLNP Reporting Station
NA  
Wind Chill: 18°   Ceiling: NA
Heat Index: 27°   Visibility: 10mi
Dew Point: 27°   Wind: 8mph
Humidity: 100%   Direction: 300°WNW
Pressure: 30.25"   Gusts: NA
Location:  37.13°N, 82.77°W
Report Text: KLNP 272315Z AUTO 30007KT 10SM M03/M03 A3025 RMK AO2
Loading
Personal Weather Stations






























Interactive Weather Map New forecast layout! Learn more

10-Day Weather Forecast

Advertisements
Track Severe Weather on mobile